createdAt,value
2022-11-29T00:01:26.533Z,20.85
2022-11-29T00:03:53.267Z,25.70
2022-11-29T00:06:27.085Z,22.00
2022-11-29T00:08:55.758Z,23.42
2022-11-29T00:11:46.427Z,21.35
2022-11-29T00:14:16.466Z,26.40
2022-11-29T00:16:43.544Z,18.25
2022-11-29T00:19:12.280Z,24.83
2022-11-29T00:21:39.248Z,26.15
2022-11-29T00:24:06.291Z,22.20
2022-11-29T00:26:32.879Z,21.80
2022-11-29T00:28:59.521Z,23.17
2022-11-29T00:31:30.234Z,25.60
2022-11-29T00:33:58.157Z,24.13
2022-11-29T00:36:25.628Z,26.27
2022-11-29T00:38:52.467Z,22.02
2022-11-29T00:41:19.551Z,24.10
2022-11-29T00:43:46.154Z,26.38
2022-11-29T00:46:12.825Z,22.23
2022-11-29T00:48:39.631Z,23.65
2022-11-29T00:51:06.871Z,21.83
2022-11-29T00:53:34.903Z,19.65
2022-11-29T00:56:02.521Z,26.70
2022-11-29T00:58:29.956Z,25.45
2022-11-29T01:03:32.016Z,23.50
2022-11-29T01:06:13.210Z,30.05
2022-11-29T01:08:39.979Z,27.95
2022-11-29T01:11:06.727Z,23.85
2022-11-29T01:13:35.137Z,27.48
2022-11-29T01:16:01.953Z,25.15
2022-11-29T01:18:30.371Z,24.55
2022-11-29T01:21:03.599Z,29.77
2022-11-29T01:23:30.482Z,28.17
2022-11-29T01:26:04.359Z,20.42
2022-11-29T01:28:30.972Z,27.75
2022-11-29T01:30:57.827Z,26.90
2022-11-29T01:33:24.727Z,30.63
2022-11-29T01:35:53.763Z,24.45
2022-11-29T01:38:21.207Z,27.15
2022-11-29T01:41:24.602Z,26.67
2022-11-29T01:44:06.890Z,27.17
2022-11-29T01:46:36.462Z,22.95
2022-11-29T01:49:09.117Z,31.10
2022-11-29T01:51:38.903Z,23.45
2022-11-29T01:54:07.032Z,21.65
2022-11-29T01:56:34.971Z,21.00
2022-11-29T01:59:08.806Z,20.05
2022-11-29T02:01:36.298Z,22.77
2022-11-29T02:04:03.236Z,26.70
2022-11-29T02:06:30.423Z,25.25
2022-11-29T02:08:57.141Z,26.33
2022-11-29T02:11:42.015Z,30.10
2022-11-29T02:14:32.496Z,29.10
2022-11-29T02:17:16.712Z,19.02
2022-11-29T02:20:42.123Z,30.98
2022-11-29T02:23:42.184Z,24.20
2022-11-29T02:26:36.027Z,28.38
2022-11-29T02:29:21.489Z,28.67
2022-11-29T02:32:07.635Z,24.65
2022-11-29T02:34:58.442Z,23.42
2022-11-29T02:37:36.934Z,29.08
2022-11-29T02:40:06.625Z,28.17
2022-11-29T02:42:56.014Z,28.95
2022-11-29T02:45:44.673Z,31.67
2022-11-29T02:48:30.345Z,28.60
2022-11-29T02:51:30.785Z,27.42
2022-11-29T02:54:10.766Z,36.58
2022-11-29T02:56:59.938Z,31.88
2022-11-29T02:59:37.249Z,31.17
2022-11-29T03:02:28.052Z,32.67
2022-11-29T03:05:19.145Z,36.38
2022-11-29T03:08:07.497Z,32.10
2022-11-29T03:11:01.436Z,31.83
2022-11-29T03:13:39.682Z,29.52
2022-11-29T03:16:31.610Z,36.25
2022-11-29T03:19:23.217Z,32.22
2022-11-29T03:22:15.451Z,33.28
2022-11-29T03:24:49.736Z,31.50
2022-11-29T03:27:38.277Z,33.80
2022-11-29T03:30:09.772Z,26.60
2022-11-29T03:32:45.108Z,27.27
2022-11-29T03:35:29.746Z,33.35
2022-11-29T03:37:56.314Z,30.15
2022-11-29T03:40:31.211Z,34.25
2022-11-29T03:43:06.670Z,33.05
2022-11-29T03:45:40.804Z,32.08
2022-11-29T03:48:12.687Z,34.97
2022-11-29T03:50:43.893Z,29.38
2022-11-29T03:53:22.579Z,28.85
2022-11-29T03:56:00.397Z,34.10
2022-11-29T03:58:32.096Z,33.28
2022-11-29T04:01:15.778Z,21.85
2022-11-29T04:04:03.988Z,24.85
2022-11-29T04:07:06.651Z,31.00
2022-11-29T04:09:49.339Z,25.42
2022-11-29T04:12:26.560Z,29.70
2022-11-29T04:15:38.800Z,27.08
2022-11-29T04:18:10.971Z,26.90
2022-11-29T04:20:48.010Z,33.47
2022-11-29T04:23:55.693Z,39.78
2022-11-29T04:26:45.698Z,31.10
2022-11-29T04:29:48.161Z,30.98
2022-11-29T04:32:17.521Z,42.50
2022-11-29T04:35:02.566Z,42.95
2022-11-29T04:38:11.278Z,30.75
2022-11-29T04:41:05.649Z,38.60
2022-11-29T04:43:38.405Z,42.25
2022-11-29T04:46:23.670Z,37.03
2022-11-29T04:48:59.484Z,45.00
2022-11-29T04:51:44.960Z,31.45
2022-11-29T04:54:33.064Z,39.88
2022-11-29T04:57:36.951Z,38.65
2022-11-29T05:00:10.772Z,31.58
2022-11-29T05:02:48.121Z,29.90
2022-11-29T05:05:30.329Z,34.47
2022-11-29T05:08:17.866Z,32.10
2022-11-29T05:11:12.970Z,37.70
2022-11-29T05:13:56.662Z,42.97
2022-11-29T05:16:47.404Z,38.78
2022-11-29T05:19:25.136Z,50.55
2022-11-29T05:22:15.618Z,32.60
2022-11-29T05:25:13.808Z,43.88
2022-11-29T05:27:58.957Z,38.95
2022-11-29T05:30:43.603Z,46.40
2022-11-29T05:33:42.465Z,44.60
2022-11-29T05:36:11.765Z,43.53
2022-11-29T05:38:51.437Z,45.22
2022-11-29T05:41:30.990Z,45.13
2022-11-29T05:44:19.566Z,46.55
2022-11-29T05:47:04.771Z,51.65
2022-11-29T05:49:58.086Z,46.40
2022-11-29T05:52:56.998Z,39.17
2022-11-29T05:55:23.513Z,38.35
2022-11-29T05:58:04.324Z,40.75
2022-11-29T06:00:58.556Z,46.00
2022-11-29T06:03:36.806Z,53.33
2022-11-29T06:06:12.766Z,50.15
2022-11-29T06:08:54.567Z,48.60
2022-11-29T06:11:46.003Z,42.80
2022-11-29T06:14:30.710Z,45.63
2022-11-29T06:17:39.545Z,48.22
2022-11-29T06:20:39.349Z,38.15
2022-11-29T06:23:17.936Z,39.85
2022-11-29T06:25:50.490Z,48.85
2022-11-29T06:28:36.527Z,47.22
2022-11-29T06:31:20.848Z,45.13
2022-11-29T06:34:01.687Z,44.15
2022-11-29T06:36:44.615Z,43.47
2022-11-29T06:39:11.742Z,30.27
2022-11-29T06:41:38.336Z,51.10
2022-11-29T06:44:05.660Z,46.20
2022-11-29T06:46:47.380Z,40.40
2022-11-29T06:49:34.191Z,45.22
2022-11-29T06:52:24.808Z,59.13
2022-11-29T06:55:05.976Z,56.15
2022-11-29T06:57:50.725Z,42.33
2022-11-29T07:00:26.779Z,41.78
2022-11-29T07:03:30.815Z,35.40
2022-11-29T07:05:58.583Z,41.13
2022-11-29T07:08:26.136Z,44.95
2022-11-29T07:10:55.455Z,50.28
2022-11-29T07:13:22.584Z,48.03
2022-11-29T07:15:57.482Z,45.80
2022-11-29T07:18:52.919Z,48.53
2022-11-29T07:22:13.343Z,43.88
2022-11-29T07:25:00.302Z,40.95
2022-11-29T07:27:47.148Z,43.13
2022-11-29T07:30:20.604Z,41.58
2022-11-29T07:33:20.322Z,45.50
2022-11-29T07:36:02.017Z,43.22
2022-11-29T07:38:55.986Z,40.00
2022-11-29T07:41:46.245Z,42.95
2022-11-29T07:44:48.607Z,42.17
2022-11-29T07:47:15.195Z,42.17
2022-11-29T07:49:41.784Z,39.45
2022-11-29T07:52:14.703Z,40.42
2022-11-29T07:54:41.563Z,38.75
2022-11-29T07:57:08.375Z,33.05
2022-11-29T07:59:35.011Z,38.78
2022-11-29T08:02:02.245Z,38.78
2022-11-29T08:04:28.865Z,40.25
2022-11-29T08:06:58.811Z,40.60
2022-11-29T08:09:25.431Z,40.22
2022-11-29T08:11:52.508Z,42.63
2022-11-29T08:14:19.077Z,41.25
2022-11-29T08:16:45.654Z,37.97
2022-11-29T08:19:12.486Z,39.30
2022-11-29T08:21:39.051Z,34.05
2022-11-29T08:24:05.824Z,35.28
2022-11-29T08:26:32.385Z,36.60
2022-11-29T08:28:59.004Z,37.42
2022-11-29T08:31:25.610Z,34.17
2022-11-29T08:33:52.196Z,35.58
2022-11-29T08:36:20.209Z,38.75
2022-11-29T08:38:47.555Z,38.80
2022-11-29T08:41:15.819Z,38.10
2022-11-29T08:43:42.448Z,36.15
2022-11-29T08:46:12.477Z,34.45
2022-11-29T08:48:43.412Z,38.63
2022-11-29T08:51:10.036Z,38.42
2022-11-29T08:53:43.034Z,39.40
2022-11-29T08:59:07.397Z,39.00
2022-11-29T09:01:34.219Z,39.75
2022-11-29T09:04:04.953Z,48.22
2022-11-29T09:06:40.427Z,44.95
2022-11-29T09:09:07.624Z,44.47
2022-11-29T09:11:35.929Z,39.72
2022-11-29T09:14:06.792Z,49.30
2022-11-29T09:16:36.152Z,44.45
2022-11-29T09:19:03.953Z,44.42
2022-11-29T09:21:32.793Z,42.70
2022-11-29T09:24:01.710Z,40.53
2022-11-29T09:26:31.510Z,41.00
2022-11-29T09:29:02.538Z,49.92
2022-11-29T09:31:30.267Z,48.50
2022-11-29T09:33:57.225Z,43.05
2022-11-29T09:36:28.497Z,47.95
2022-11-29T09:38:55.998Z,48.25
2022-11-29T09:41:37.990Z,48.53
2022-11-29T09:44:25.993Z,46.35
2022-11-29T09:47:27.931Z,42.67
2022-11-29T09:50:23.338Z,39.95
2022-11-29T09:53:24.919Z,45.05
2022-11-29T09:56:18.570Z,41.25
2022-11-29T09:59:00.455Z,40.55
2022-11-29T10:01:31.321Z,40.00
2022-11-29T10:04:02.872Z,38.17
2022-11-29T10:06:38.556Z,10.30
2022-11-29T10:09:28.415Z,34.67
2022-11-29T10:12:09.560Z,41.38
2022-11-29T10:14:45.968Z,30.15
2022-11-29T10:17:36.200Z,40.30
2022-11-29T10:20:18.830Z,40.60
2022-11-29T10:22:55.254Z,34.33
2022-11-29T10:25:25.833Z,37.35
2022-11-29T10:27:53.378Z,40.42
2022-11-29T10:30:20.184Z,43.95
2022-11-29T10:32:51.890Z,44.97
2022-11-29T10:35:19.788Z,41.03
2022-11-29T10:38:07.852Z,38.38
2022-11-29T10:40:37.909Z,42.55
2022-11-29T10:43:04.882Z,47.80
2022-11-29T10:45:45.741Z,47.85
2022-11-29T10:48:20.143Z,46.47
2022-11-29T10:50:49.874Z,49.10
2022-11-29T10:53:19.856Z,42.13
2022-11-29T10:56:24.034Z,54.28
2022-11-29T10:59:05.304Z,58.80
2022-11-29T11:01:36.939Z,42.63
2022-11-29T11:04:07.206Z,51.40
2022-11-29T11:06:51.205Z,43.80
2022-11-29T11:10:03.101Z,45.55
2022-11-29T11:12:32.928Z,46.13
2022-11-29T11:15:29.657Z,41.05
2022-11-29T11:17:59.430Z,41.08
2022-11-29T11:20:29.872Z,34.70
2022-11-29T11:23:05.982Z,41.35
2022-11-29T11:25:35.402Z,43.28
2022-11-29T11:28:27.205Z,38.88
2022-11-29T11:31:08.100Z,41.53
2022-11-29T11:33:43.102Z,38.65
2022-11-29T11:36:27.473Z,37.90
2022-11-29T11:38:59.195Z,33.83
2022-11-29T11:42:17.013Z,39.45
2022-11-29T11:44:50.070Z,37.85
2022-11-29T11:47:29.085Z,38.17
2022-11-29T11:50:04.709Z,37.33
2022-11-29T11:52:42.039Z,35.63
2022-11-29T11:55:40.671Z,37.22
2022-11-29T11:58:12.999Z,34.67
2022-11-29T12:01:03.874Z,32.22
2022-11-29T12:03:42.161Z,35.85
2022-11-29T12:06:14.776Z,30.88
2022-11-29T12:08:43.082Z,37.05
2022-11-29T12:11:13.240Z,35.95
2022-11-29T12:13:43.727Z,35.88
2022-11-29T12:16:18.310Z,36.67
2022-11-29T12:18:49.958Z,38.63
2022-11-29T12:21:22.957Z,41.05
2022-11-29T12:23:58.610Z,41.85
2022-11-29T12:29:31.711Z,39.53
2022-11-29T12:32:13.286Z,43.47
2022-11-29T12:34:52.214Z,40.65
2022-11-29T12:37:37.192Z,48.60
2022-11-29T12:40:33.571Z,46.47
2022-11-29T12:43:12.304Z,45.95
2022-11-29T12:45:53.919Z,40.15
2022-11-29T12:48:48.236Z,43.35
2022-11-29T12:51:22.408Z,43.50
2022-11-29T12:54:07.439Z,40.08
2022-11-29T12:56:46.108Z,22.63
2022-11-29T12:59:41.749Z,45.00
2022-11-29T13:02:40.516Z,46.22
2022-11-29T13:05:25.954Z,39.97
2022-11-29T13:08:04.905Z,45.47
2022-11-29T13:10:43.254Z,40.78
2022-11-29T13:13:15.658Z,37.22
2022-11-29T13:16:20.514Z,46.85
2022-11-29T13:19:23.137Z,45.33
2022-11-29T13:22:21.919Z,44.92
2022-11-29T13:24:57.184Z,48.13
2022-11-29T13:27:38.174Z,52.85
2022-11-29T13:30:06.412Z,49.28
2022-11-29T13:32:43.967Z,46.13
2022-11-29T13:35:32.352Z,53.00
2022-11-29T13:38:19.892Z,49.67
2022-11-29T13:41:11.032Z,39.47
2022-11-29T13:43:59.904Z,45.60
2022-11-29T13:46:42.520Z,84.47
2022-11-29T13:49:43.010Z,67.78
2022-11-29T13:52:28.788Z,46.70
2022-11-29T13:55:28.933Z,46.95
2022-11-29T13:58:30.745Z,38.85
2022-11-29T14:01:08.003Z,35.67
2022-11-29T14:03:46.263Z,35.70
2022-11-29T14:06:31.456Z,36.00
2022-11-29T14:09:32.907Z,32.72
2022-11-29T14:12:19.098Z,27.95
2022-11-29T14:15:14.159Z,27.08
2022-11-29T14:17:48.257Z,26.55
2022-11-29T14:20:23.680Z,25.65
2022-11-29T14:23:05.233Z,27.88
2022-11-29T14:25:51.545Z,22.80
2022-11-29T14:28:21.596Z,24.73
2022-11-29T14:30:56.994Z,19.20
2022-11-29T14:33:45.359Z,28.05
2022-11-29T14:36:15.000Z,21.85
2022-11-29T14:39:01.926Z,21.75
2022-11-29T14:42:03.553Z,25.13
2022-11-29T14:44:32.806Z,15.38
2022-11-29T14:47:06.213Z,20.63
2022-11-29T14:49:43.396Z,30.10
2022-11-29T14:52:12.960Z,26.40
2022-11-29T14:55:29.474Z,26.85
2022-11-29T14:58:03.813Z,18.60
2022-11-29T15:00:38.143Z,20.38
2022-11-29T15:03:36.650Z,22.80
2022-11-29T15:06:24.414Z,28.85
2022-11-29T15:09:15.082Z,29.35
2022-11-29T15:12:11.162Z,21.55
2022-11-29T15:15:09.637Z,29.08
2022-11-29T15:18:06.491Z,28.92
2022-11-29T15:21:08.242Z,30.98
2022-11-29T15:23:42.566Z,29.92
2022-11-29T15:26:20.716Z,25.77
2022-11-29T15:28:47.532Z,26.75
2022-11-29T15:31:19.062Z,22.48
2022-11-29T15:33:48.272Z,26.27
2022-11-29T15:36:22.648Z,25.65
2022-11-29T15:38:51.477Z,26.00
2022-11-29T15:41:26.051Z,33.83
2022-11-29T15:43:57.353Z,28.20
2022-11-29T15:46:26.839Z,27.27
2022-11-29T15:48:53.901Z,27.45
2022-11-29T15:51:33.495Z,23.50
2022-11-29T15:54:26.393Z,26.88
2022-11-29T15:57:05.234Z,24.50
2022-11-29T15:59:41.775Z,7.70
2022-11-29T16:02:28.109Z,25.65
2022-11-29T16:04:59.859Z,21.23
2022-11-29T16:07:32.150Z,21.95
2022-11-29T16:10:04.754Z,17.90
2022-11-29T16:12:32.228Z,18.60
2022-11-29T16:15:00.777Z,16.00
2022-11-29T16:17:30.551Z,21.73
2022-11-29T16:20:24.244Z,22.33
2022-11-29T16:23:11.337Z,23.00
2022-11-29T16:25:52.242Z,19.98
2022-11-29T16:28:19.414Z,23.52
2022-11-29T16:30:46.178Z,20.70
2022-11-29T16:33:23.665Z,25.52
2022-11-29T16:35:51.387Z,21.33
2022-11-29T16:38:22.355Z,19.80
2022-11-29T16:41:20.960Z,18.55
2022-11-29T16:43:54.991Z,22.35
2022-11-29T16:46:21.537Z,23.75
2022-11-29T16:48:49.423Z,23.38
2022-11-29T16:51:23.810Z,22.40
2022-11-29T16:53:52.588Z,20.50
2022-11-29T16:56:25.039Z,24.38
2022-11-29T16:59:25.537Z,22.42
2022-11-29T17:01:49.016Z,20.27
2022-11-29T17:04:23.427Z,21.42
2022-11-29T17:06:52.091Z,27.17
2022-11-29T17:09:27.516Z,23.70
2022-11-29T17:11:55.477Z,21.25
2022-11-29T17:14:22.466Z,21.70
2022-11-29T17:16:49.580Z,19.25
2022-11-29T17:19:16.396Z,19.73
2022-11-29T17:21:43.313Z,20.55
2022-11-29T17:24:12.852Z,19.90
2022-11-29T17:26:40.491Z,22.75
2022-11-29T17:29:07.337Z,22.20
2022-11-29T17:31:33.998Z,20.92
2022-11-29T17:34:01.163Z,19.02
2022-11-29T17:36:27.857Z,15.60
2022-11-29T17:38:54.565Z,18.77
2022-11-29T17:41:24.037Z,18.48
2022-11-29T17:43:52.321Z,24.25
2022-11-29T17:46:22.489Z,24.25
2022-11-29T17:48:50.043Z,22.17
2022-11-29T17:51:49.985Z,27.85
2022-11-29T17:54:08.258Z,27.80
2022-11-29T17:56:34.911Z,22.95
2022-11-29T17:59:03.184Z,22.52
2022-11-29T18:01:32.386Z,20.67
2022-11-29T18:04:02.423Z,23.83
2022-11-29T18:06:38.025Z,18.88
2022-11-29T18:09:06.486Z,27.30
2022-11-29T18:11:49.138Z,20.90
2022-11-29T18:14:23.169Z,21.00
2022-11-29T18:16:50.024Z,19.85
2022-11-29T18:19:19.049Z,27.60
2022-11-29T18:21:45.885Z,22.95
2022-11-29T18:24:12.476Z,21.02
2022-11-29T18:26:39.498Z,24.00
2022-11-29T18:29:07.155Z,23.42
2022-11-29T18:31:36.743Z,22.15
2022-11-29T18:34:06.940Z,31.95
2022-11-29T18:36:36.182Z,21.85
2022-11-29T18:39:05.906Z,19.02
2022-11-29T18:41:32.922Z,21.13
2022-11-29T18:44:05.814Z,25.60
2022-11-29T18:46:33.221Z,23.30
2022-11-29T18:49:03.355Z,21.10
2022-11-29T18:51:31.054Z,27.27
2022-11-29T18:53:58.731Z,32.88
2022-11-29T18:56:27.935Z,29.08
2022-11-29T18:58:58.651Z,31.95
2022-11-29T19:01:27.787Z,35.78
2022-11-29T19:03:56.960Z,32.15
2022-11-29T19:06:25.990Z,28.45
2022-11-29T19:08:53.375Z,31.35
2022-11-29T19:11:22.849Z,28.48
2022-11-29T19:13:55.954Z,28.88
2022-11-29T19:16:24.334Z,26.55
2022-11-29T19:18:53.504Z,22.52
2022-11-29T19:21:21.962Z,25.88
2022-11-29T19:23:53.387Z,22.30
2022-11-29T19:26:21.063Z,26.42
2022-11-29T19:28:48.653Z,25.30
2022-11-29T19:31:16.938Z,22.48
2022-11-29T19:33:44.768Z,25.20
2022-11-29T19:36:17.210Z,22.15
2022-11-29T19:38:48.857Z,32.92
2022-11-29T19:41:41.622Z,14.45
2022-11-29T19:44:08.752Z,31.52
2022-11-29T19:46:38.422Z,38.33
2022-11-29T19:49:07.142Z,34.55
2022-11-29T19:51:34.295Z,35.35
2022-11-29T19:54:04.005Z,29.70
2022-11-29T19:56:31.655Z,33.58
2022-11-29T19:59:01.658Z,33.33
2022-11-29T20:01:37.696Z,34.25
2022-11-29T20:04:06.586Z,37.42
2022-11-29T20:06:33.154Z,31.60
2022-11-29T20:08:59.777Z,35.80
2022-11-29T20:11:26.764Z,34.05
2022-11-29T20:14:04.330Z,32.58
2022-11-29T20:16:31.436Z,30.98
2022-11-29T20:18:58.791Z,28.48
2022-11-29T20:21:31.197Z,32.58
2022-11-29T20:24:00.395Z,27.10
2022-11-29T20:26:27.927Z,34.83
2022-11-29T20:28:54.731Z,24.80
2022-11-29T20:31:22.997Z,27.85
2022-11-29T20:33:51.939Z,33.83
2022-11-29T20:36:49.098Z,36.92
2022-11-29T20:39:41.985Z,31.33
2022-11-29T20:42:31.484Z,32.20
2022-11-29T20:45:00.730Z,34.75
2022-11-29T20:47:42.439Z,34.65
2022-11-29T20:50:20.497Z,35.53
2022-11-29T20:53:00.921Z,38.50
2022-11-29T20:55:27.492Z,33.40
2022-11-29T20:57:54.092Z,38.58
2022-11-29T21:00:21.174Z,37.83
2022-11-29T21:02:47.796Z,34.20
2022-11-29T21:05:16.186Z,42.63
2022-11-29T21:07:43.780Z,38.33
2022-11-29T21:10:10.759Z,45.28
2022-11-29T21:12:38.582Z,40.72
2022-11-29T21:15:05.872Z,42.08
2022-11-29T21:17:33.888Z,44.13
2022-11-29T21:20:01.117Z,38.97
2022-11-29T21:22:49.284Z,41.83
2022-11-29T21:25:35.248Z,36.67
2022-11-29T21:28:02.320Z,40.55
2022-11-29T21:30:29.104Z,41.85
2022-11-29T21:32:55.958Z,42.45
2022-11-29T21:35:22.509Z,38.58
2022-11-29T21:37:54.333Z,34.90
2022-11-29T21:40:20.904Z,26.00
2022-11-29T21:42:47.457Z,39.47
2022-11-29T21:45:15.788Z,38.45
2022-11-29T21:47:44.014Z,43.40
2022-11-29T21:50:11.782Z,38.03
2022-11-29T21:52:38.357Z,45.13
2022-11-29T21:55:05.583Z,40.72
2022-11-29T21:57:32.135Z,37.53
2022-11-29T21:59:58.865Z,41.28
2022-11-29T22:02:25.581Z,39.67
2022-11-29T22:04:52.211Z,42.25
2022-11-29T22:07:18.900Z,36.42
2022-11-29T22:09:45.538Z,38.38
2022-11-29T22:12:32.485Z,37.75
2022-11-29T22:14:58.707Z,36.10
2022-11-29T22:17:25.274Z,38.42
2022-11-29T22:19:51.883Z,36.55
2022-11-29T22:22:18.654Z,39.78
2022-11-29T22:24:45.564Z,39.97
2022-11-29T22:27:12.379Z,32.17
2022-11-29T22:29:38.940Z,39.42
2022-11-29T22:32:06.102Z,40.15
2022-11-29T22:34:32.690Z,37.05
2022-11-29T22:36:59.291Z,38.30
2022-11-29T22:39:26.139Z,38.63
2022-11-29T22:41:54.994Z,39.90
2022-11-29T22:44:23.193Z,40.83
2022-11-29T22:46:49.853Z,36.25
2022-11-29T22:49:16.571Z,39.70
2022-11-29T22:51:43.164Z,42.97
2022-11-29T22:54:11.596Z,43.53
2022-11-29T22:56:40.442Z,41.92
2022-11-29T22:59:07.419Z,40.47
2022-11-29T23:01:36.303Z,39.17
2022-11-29T23:04:06.009Z,39.65
2022-11-29T23:06:41.841Z,44.50
2022-11-29T23:09:15.776Z,36.67
2022-11-29T23:11:46.014Z,42.35
2022-11-29T23:14:13.396Z,46.33
2022-11-29T23:16:41.771Z,39.22
2022-11-29T23:19:09.322Z,43.45
2022-11-29T23:21:38.961Z,47.25
2022-11-29T23:24:06.129Z,45.13
2022-11-29T23:26:41.477Z,50.72
2022-11-29T23:29:11.523Z,49.45
2022-11-29T23:31:38.517Z,45.63
2022-11-29T23:34:05.342Z,45.47
2022-11-29T23:36:32.143Z,44.30
2022-11-29T23:38:58.867Z,45.03
2022-11-29T23:41:25.430Z,47.25
2022-11-29T23:43:51.996Z,50.83
2022-11-29T23:46:23.418Z,51.42
2022-11-29T23:48:50.410Z,51.25
2022-11-29T23:51:18.018Z,48.50
2022-11-29T23:53:45.059Z,46.17
2022-11-29T23:56:16.845Z,51.80
2022-11-29T23:58:44.273Z,52.70
